• Join FlightAware (Why Join?)
  • Login
  • US Flag 
04:48AM EST


 

Airport Tracker/Info


-or-


 

Live Flight TrackerFlight Track Log ✈ N101MA ✈ 13-Jul-2013 ✈ KLHY - KMPO

Flight Track Log - Related Links

Times and Time Zones

All times are in EDT time to prevent confusion due to time zone crossing. See the N101MA flight status page for this flight to view local times or setup timezone preferences in your user account.

Time Position Orientation Groundspeed Altitude Reporting Facility
EDT Latitude Longitude Course Direction KTS MPH feet Rate Location/Type
10:20PM 44.8739 -70.8994 253° West 176 203 8,500  Level Boston Center
10:21PM 44.8350 -70.9503 223° Southwest 182 209 8,500  Level Boston Center
10:22PM 44.7981 -70.9981 223° Southwest 187 215 8,600  Climbing Boston Center
10:23PM 44.7653 -71.0425 224° Southwest 187 215 8,500  Descending Boston Center
10:24PM 44.7283 -71.0872 221° Southwest 187 215 8,600  Climbing Boston Center
10:25PM 44.6936 -71.1319 222° Southwest 187 215 8,500 -60 Descending Boston Center
10:26PM 44.6586 -71.1822 226° Southwest 187 215 8,500  Level Boston Center
10:27PM 44.6217 -71.2297 222° Southwest 187 215 8,500  Level Boston Center
10:28PM 44.5825 -71.2772 221° Southwest 187 215 8,500  Level Boston Center
10:29PM 44.5456 -71.3275 224° Southwest 187 215 8,600  Climbing Boston Center
10:30PM 44.5064 -71.3747 221° Southwest 187 215 8,500  Descending Boston Center
10:31PM 44.4694 -71.4219 222° Southwest 187 215 8,600  Climbing Boston Center
10:32PM 44.4344 -71.4750 227° Southwest 187 215 8,600  Level Boston Center
10:33PM 44.3994 -71.5219 224° Southwest 187 215 8,600 -60 Level Boston Center
10:34PM 44.3600 -71.5689 220° Southwest 187 215 8,500  Descending Boston Center
10:35PM 44.3208 -71.6189 222° Southwest 187 215 8,600  Climbing Boston Center
10:36PM 44.2858 -71.6658 224° Southwest 187 215 8,600  Level Boston Center
10:37PM 44.2342 -71.7303 222° Southwest 187 215 8,600  Level Boston Center
10:38PM 44.1947 -71.7769 220° Southwest 187 215 8,600  Level Boston Center
10:39PM 44.1575 -71.8239 222° Southwest 187 215 8,600  Level Boston Center
10:40PM 44.1225 -71.8703 224° Southwest 187 215 8,600 -60 Level Boston Center
10:41PM 44.0850 -71.9142 220° Southwest 187 215 8,500  Descending Boston Center
10:42PM 44.0500 -71.9606 224° Southwest 187 215 8,600  Climbing Boston Center
10:43PM 44.0106 -72.0100 222° Southwest 187 215 8,600  Level Boston Center
10:44PM 43.9731 -72.0594 224° Southwest 187 215 8,600  Level Boston Center
10:45PM 43.9378 -72.1056 223° Southwest 187 215 8,600  Level Boston Center
10:46PM 43.8983 -72.1461 217° Southwest 187 215 8,600  Level Boston Center
10:47PM 43.8631 -72.1983 227° Southwest 187 215 8,600  Level Boston Center
10:48PM 43.8236 -72.2417 218° Southwest 187 215 8,600 -60 Level Boston Center
10:49PM 43.7883 -72.2878 223° Southwest 187 215 8,500  Descending Boston Center
10:50PM 43.7508 -72.3367 223° Southwest 187 215 8,600  Climbing Boston Center
10:51PM 43.7133 -72.3825 221° Southwest 187 215 8,600 -60 Level Boston Center
10:52PM 43.6758 -72.4286 222° Southwest 187 215 8,500  Descending Boston Center
10:53PM 43.6361 -72.4744 220° Southwest 187 215 8,600  Climbing Boston Center
10:54PM 43.6008 -72.5203 223° Southwest 187 215 8,500  Descending Boston Center
10:55PM 43.5633 -72.5661 222° Southwest 187 215 8,600  Climbing Boston Center
10:56PM 43.5256 -72.6119 221° Southwest 187 215 8,500 -60 Descending Boston Center
10:57PM 43.4858 -72.6606 222° Southwest 187 215 8,500  Level Boston Center
10:58PM 43.4483 -72.7061 221° Southwest 187 215 8,500  Level Boston Center
10:59PM 43.4108 -72.7544 223° Southwest 187 215 8,500  Level Boston Center
11:00PM 43.3772 -72.7942 221° Southwest 181 208 8,500  Level Boston Center
11:01PM 43.3356 -72.8456 222° Southwest 187 215 8,500  Level Boston Center
11:02PM 43.2978 -72.8850 217° Southwest 182 209 8,500  Level Boston Center
11:03PM 43.2622 -72.9306 223° Southwest 184 212 8,500 -60 Level Boston Center
11:04PM 43.2244 -72.9786 223° Southwest 184 212 8,400 -60 Descending Boston Center
11:05PM 43.1806 -73.0267 219° Southwest 182 209 8,400  Level Boston Center
11:06PM 43.1447 -73.0719 223° Southwest 180 207 8,500  Climbing Boston Center
11:07PM 43.1069 -73.1197 223° Southwest 179 206 8,500  Level Boston Center
11:08PM 43.0692 -73.1647 221° Southwest 180 207 8,500 -60 Level Boston Center
11:09PM 43.0314 -73.2069 219° Southwest 181 208 8,400 -60 Descending Boston Center
11:10PM 42.9936 -73.2547 223° Southwest 181 208 8,400  Level Boston Center
11:11PM 42.9558 -73.2997 221° Southwest 181 208 8,400  Level Boston Center
11:12PM 42.9136 -73.3500 221° Southwest 187 215 8,500  Climbing Boston Center
11:13PM 42.8778 -73.3919 221° Southwest 182 209 8,400 -60 Descending Boston Center
11:14PM 42.8378 -73.4394 221° Southwest 187 215 8,400  Level Boston Center
11:15PM 42.8019 -73.4842 222° Southwest 182 209 8,400  Level Boston Center
11:16PM 42.7642 -73.5289 221° Southwest 183 211 8,400  Level Boston Center
11:17PM 42.7239 -73.5761 221° Southwest 183 211 8,500  Climbing Boston Center
11:18PM 42.6861 -73.6208 221° Southwest 184 212 8,400  Descending Boston Center
11:19PM 42.6503 -73.6653 222° Southwest 184 212 8,500  Climbing Boston Center
11:20PM 42.6081 -73.7122 219° Southwest 182 209 8,500 -60 Level Boston Center
11:22PM 42.5278 -73.8064 221° Southwest 184 212 8,400  Descending Boston Center
11:23PM 42.4894 -73.8533 222° Southwest 185 213 8,500  Climbing Boston Center
11:24PM 42.4514 -73.8978 221° Southwest 189 217 8,400 -60 Descending Boston Center
11:25PM 42.4261 -73.9253 219° Southwest 191 220 8,400  Level Boston Center
11:26PM 42.3817 -73.9719 218° Southwest 191 220 8,400  Level Boston Center
11:27PM 42.3456 -74.0161 222° Southwest 201 231 8,500  Climbing Boston Center
11:28PM 42.3033 -74.0656 221° Southwest 201 231 8,500  Level Boston Center
11:29PM 42.2694 -74.1067 222° Southwest 190 219 8,500  Level Boston Center
11:30PM 42.2269 -74.1558 221° Southwest 185 213 8,500  Level Boston Center
11:31PM 42.1931 -74.1944 220° Southwest 185 213 8,500 -60 Level Boston Center
11:32PM 42.1483 -74.2433 219° Southwest 185 213 8,400  Descending Boston Center
11:33PM 42.1144 -74.2844 222° Southwest 185 213 8,500  Climbing Boston Center
11:34PM 42.0719 -74.3364 222° Southwest 185 213 8,500 -60 Level Boston Center
11:35PM 42.0358 -74.3744 218° Southwest 190 219 8,400 -60 Descending Boston Center
11:36PM 41.9933 -74.4261 222° Southwest 185 213 8,400  Level Boston Center
11:37PM 41.9550 -74.4669 218° Southwest 190 219 8,400  Level Boston Center
11:38PM 41.9125 -74.5158 221° Southwest 190 219 8,400  Level Boston Center
11:39PM 41.8761 -74.5564 220° Southwest 190 219 8,400  Level Boston Center
11:40PM 41.8336 -74.6078 222° Southwest 185 213 8,500  Climbing Boston Center
11:41PM 41.7994 -74.6458 220° Southwest 190 219 8,500 -60 Level Boston Center
11:42PM 41.7547 -74.6969 220° Southwest 190 219 8,400 -60 Descending Boston Center
11:43PM 41.7264 -74.7517 235° Southwest 190 219 8,400  Level Boston Center
11:44PM 41.7042 -74.8258 248° West 196 226 8,500 60 Climbing Boston Center
11:46PM 41.6333 -74.8958 223° Southwest  Level Estimated
11:53PM 41.3210 -75.1497 225° Southwest  Level FlightAware Approximate
11:54PM 41.2801 -75.2014 223° Southwest  Level Estimated
11:55PM 41.2391 -75.2529 223° Southwest  Level Estimated
11:56PM 41.1981 -75.3044 223° Southwest  Level Estimated
11:57PM 41.1570 -75.3559 223° Southwest  Level Estimated
11:58PM 41.1377 -75.3801 223° Southwest  Level Estimated
11:59PM 41.1377 -75.3801 37° Northeast  Level Estimated
12:00AM 41.1377 -75.3801 37° Northeast  Level Estimated
12:01AM 41.1377 -75.3801 37° Northeast  Level Estimated
12:02AM 41.1377 -75.3801 37° Northeast  Level Estimated
12:03AM 41.1377 -75.3801 37° Northeast  Level Estimated
12:04AM 41.1377 -75.3801 37° Northeast  Level Estimated
12:05AM 41.1377 -75.3801 37° Northeast  Level Estimated
12:06AM 41.1377 -75.3801 37° Northeast  Level Estimated
12:07AM 41.1377 -75.3801 37° Northeast  Level Estimated
12:08AM 41.1377 -75.3801 37° Northeast  Level Estimated
12:09AM 41.1377 -75.3801 37° Northeast  Level Estimated
12:10AM 41.1377 -75.3801 37° Northeast  Level Estimated